createdAt,value
2019-04-07T00:00:41.004Z,9.60
2019-04-07T00:01:49.215Z,9.60
2019-04-07T00:02:53.567Z,9.60
2019-04-07T00:03:58.548Z,9.70
2019-04-07T00:05:11.162Z,9.60
2019-04-07T00:06:09.659Z,9.60
2019-04-07T00:07:14.741Z,9.60
2019-04-07T00:08:19.248Z,9.60
2019-04-07T00:09:23.575Z,9.60
2019-04-07T00:10:28.664Z,9.50
2019-04-07T00:11:33.521Z,9.50
2019-04-07T00:12:37.920Z,9.50
2019-04-07T00:13:42.413Z,9.50
2019-04-07T00:14:46.866Z,9.50
2019-04-07T00:15:51.268Z,9.50
2019-04-07T00:16:55.879Z,9.40
2019-04-07T00:18:00.577Z,9.50
2019-04-07T00:19:05.464Z,9.40
2019-04-07T00:20:10.051Z,9.40
2019-04-07T00:21:14.592Z,9.40
2019-04-07T00:22:19.942Z,9.40
2019-04-07T00:23:24.416Z,9.40
2019-04-07T00:24:28.871Z,9.40
2019-04-07T00:25:33.332Z,9.30
2019-04-07T00:26:37.807Z,9.30
2019-04-07T00:27:42.219Z,9.30
2019-04-07T00:28:46.591Z,9.20
2019-04-07T00:29:51.078Z,9.20
2019-04-07T00:30:55.611Z,9.20
2019-04-07T00:32:00.133Z,9.20
2019-04-07T00:33:05.147Z,9.20
2019-04-07T00:34:09.681Z,9.10
2019-04-07T00:35:23.259Z,9.10
2019-04-07T00:36:20.692Z,9.10
2019-04-07T00:37:25.160Z,9.00
2019-04-07T00:38:29.620Z,9.00
2019-04-07T00:39:34.572Z,9.00
2019-04-07T00:40:39.264Z,9.00
2019-04-07T00:41:43.859Z,9.00
2019-04-07T00:42:48.222Z,9.00
2019-04-07T00:43:52.718Z,8.90
2019-04-07T00:44:57.184Z,8.90
2019-04-07T00:46:02.346Z,8.90
2019-04-07T00:47:07.378Z,8.90
2019-04-07T00:48:13.676Z,8.90
2019-04-07T00:49:18.260Z,8.90
2019-04-07T00:50:22.943Z,8.90
2019-04-07T00:51:27.648Z,8.90
2019-04-07T00:52:32.672Z,8.80
2019-04-07T00:53:37.531Z,8.80
2019-04-07T00:54:43.214Z,8.90
2019-04-07T00:55:47.823Z,8.90
2019-04-07T00:56:52.211Z,8.90
2019-04-07T00:57:57.152Z,8.80
2019-04-07T00:59:02.654Z,8.80
2019-04-07T01:00:09.632Z,8.80
2019-04-07T01:01:16.877Z,8.80
2019-04-07T01:02:21.362Z,8.70
2019-04-07T01:03:26.001Z,8.70
2019-04-07T01:04:30.697Z,8.70
2019-04-07T01:05:38.882Z,8.70
2019-04-07T01:06:42.207Z,8.60
2019-04-07T01:07:46.759Z,8.60
2019-04-07T01:08:51.499Z,8.60
2019-04-07T01:09:56.084Z,8.60
2019-04-07T01:11:00.538Z,8.60
2019-04-07T01:12:05.073Z,8.50
2019-04-07T01:13:09.574Z,8.50
2019-04-07T01:14:13.993Z,8.50
2019-04-07T01:15:18.632Z,8.50
2019-04-07T01:16:23.212Z,8.50
2019-04-07T01:17:27.927Z,8.50
2019-04-07T01:18:34.101Z,8.50
2019-04-07T01:19:38.673Z,8.50
2019-04-07T01:20:43.077Z,8.40
2019-04-07T01:21:47.756Z,8.40
2019-04-07T01:22:52.934Z,8.40
2019-04-07T01:23:57.838Z,8.40
2019-04-07T01:25:02.631Z,8.40
2019-04-07T01:26:07.457Z,8.40
2019-04-07T01:27:12.533Z,8.40
2019-04-07T01:28:17.776Z,8.40
2019-04-07T01:29:22.123Z,8.40
2019-04-07T01:30:27.200Z,8.40
2019-04-07T01:31:31.624Z,8.40
2019-04-07T01:32:36.707Z,8.40
2019-04-07T01:33:41.613Z,8.40
2019-04-07T01:34:46.865Z,8.40
2019-04-07T01:35:51.535Z,8.40
2019-04-07T01:36:56.726Z,8.40
2019-04-07T01:38:01.507Z,8.40
2019-04-07T01:39:10.012Z,8.40
2019-04-07T01:40:23.536Z,8.40
2019-04-07T01:41:39.347Z,8.30
2019-04-07T01:43:01.724Z,8.40
2019-04-07T01:44:30.874Z,8.30
2019-04-07T01:45:54.595Z,8.30
2019-04-07T01:47:30.530Z,8.30
2019-04-07T01:48:57.460Z,8.30
2019-04-07T01:50:19.067Z,8.20
2019-04-07T01:51:41.065Z,8.20
2019-04-07T01:53:23.011Z,8.20
2019-04-07T01:54:34.736Z,8.20
2019-04-07T01:55:57.511Z,8.10
2019-04-07T01:57:15.901Z,8.10
2019-04-07T01:58:38.179Z,8.10
2019-04-07T02:00:01.964Z,8.10
2019-04-07T02:01:23.067Z,8.10
2019-04-07T02:02:46.720Z,8.10
2019-04-07T02:04:09.367Z,8.10
2019-04-07T02:05:39.255Z,8.10
2019-04-07T02:07:02.113Z,8.10
2019-04-07T02:08:28.525Z,8.00
2019-04-07T02:09:51.401Z,8.00
2019-04-07T02:11:14.573Z,8.00
2019-04-07T02:12:41.353Z,8.00
2019-04-07T02:14:08.651Z,8.00
2019-04-07T02:15:23.999Z,8.00
2019-04-07T02:16:51.207Z,7.90
2019-04-07T02:18:03.646Z,7.90
2019-04-07T02:19:21.579Z,7.90
2019-04-07T02:21:00.872Z,7.90
2019-04-07T02:22:34.387Z,7.80
2019-04-07T02:23:50.970Z,7.80
2019-04-07T02:25:17.297Z,7.80
2019-04-07T02:26:34.331Z,7.80
2019-04-07T02:27:54.583Z,7.80
2019-04-07T02:29:17.043Z,7.80
2019-04-07T02:30:39.289Z,7.80
2019-04-07T02:32:00.190Z,7.80
2019-04-07T02:33:22.882Z,7.70
2019-04-07T02:34:49.544Z,7.70
2019-04-07T02:36:13.281Z,7.70
2019-04-07T02:37:24.663Z,7.70
2019-04-07T02:39:03.481Z,7.70
2019-04-07T02:40:26.721Z,7.60
2019-04-07T02:41:42.130Z,7.60
2019-04-07T02:42:51.950Z,7.60
2019-04-07T02:44:25.330Z,7.60
2019-04-07T02:45:49.315Z,7.60
2019-04-07T02:47:08.413Z,7.60
2019-04-07T02:48:39.450Z,7.60
2019-04-07T02:50:05.626Z,7.60
2019-04-07T02:51:26.294Z,7.60
2019-04-07T02:53:05.741Z,7.60
2019-04-07T02:54:47.569Z,7.60
2019-04-07T02:56:11.116Z,7.50
2019-04-07T02:57:36.003Z,7.50
2019-04-07T02:58:59.380Z,7.50
2019-04-07T03:00:25.934Z,7.50
2019-04-07T03:01:38.443Z,7.50
2019-04-07T03:03:08.749Z,7.50
2019-04-07T03:04:27.285Z,7.50
2019-04-07T03:05:58.295Z,7.50
2019-04-07T03:07:13.558Z,7.50
2019-04-07T03:08:37.802Z,7.50
2019-04-07T03:10:04.890Z,7.50
2019-04-07T03:11:21.247Z,7.50
2019-04-07T03:12:37.298Z,7.50
2019-04-07T03:13:54.066Z,7.50
2019-04-07T03:15:15.003Z,7.50
2019-04-07T03:16:38.136Z,7.40
2019-04-07T03:17:53.893Z,7.40
2019-04-07T03:19:04.598Z,7.40
2019-04-07T03:20:29.469Z,7.40
2019-04-07T03:21:56.202Z,7.40
2019-04-07T03:23:22.263Z,7.40
2019-04-07T03:24:42.781Z,7.40
2019-04-07T03:26:09.538Z,7.40
2019-04-07T03:27:42.347Z,7.40
2019-04-07T03:29:05.173Z,7.40
2019-04-07T03:30:49.258Z,7.40
2019-04-07T03:32:02.583Z,7.40
2019-04-07T03:33:45.289Z,7.40
2019-04-07T03:35:07.371Z,7.40
2019-04-07T03:36:30.073Z,7.40
2019-04-07T03:37:47.162Z,7.40
2019-04-07T03:38:59.276Z,7.40
2019-04-07T03:40:35.527Z,7.40
2019-04-07T03:41:45.883Z,7.40
2019-04-07T03:43:04.991Z,7.40
2019-04-07T03:44:14.761Z,7.40
2019-04-07T03:45:26.485Z,7.30
2019-04-07T03:46:49.496Z,7.30
2019-04-07T03:48:02.058Z,7.30
2019-04-07T03:49:23.562Z,7.30
2019-04-07T03:50:45.242Z,7.30
2019-04-07T03:52:09.917Z,7.30
2019-04-07T03:53:39.536Z,7.20
2019-04-07T03:54:55.076Z,7.20
2019-04-07T03:56:27.182Z,7.20
2019-04-07T03:57:47.713Z,7.20
2019-04-07T03:59:21.456Z,7.20
2019-04-07T04:01:35.382Z,7.20
2019-04-07T04:02:50.594Z,7.20
2019-04-07T04:04:10.656Z,7.20
2019-04-07T04:05:33.920Z,7.10
2019-04-07T04:07:21.711Z,7.10
2019-04-07T04:08:34.999Z,7.10
2019-04-07T04:09:44.103Z,7.10
2019-04-07T04:10:55.594Z,7.10
2019-04-07T04:12:25.721Z,7.10
2019-04-07T04:13:56.200Z,7.10
2019-04-07T04:15:04.074Z,7.10
2019-04-07T04:16:15.573Z,7.00
2019-04-07T04:17:20.029Z,7.00
2019-04-07T04:18:28.510Z,7.00
2019-04-07T04:19:33.665Z,7.00
2019-04-07T04:20:38.787Z,6.90
2019-04-07T04:21:45.595Z,6.90
2019-04-07T04:22:50.655Z,6.90
2019-04-07T04:23:55.181Z,6.90
2019-04-07T04:24:59.608Z,6.90
2019-04-07T04:26:04.442Z,6.90
2019-04-07T04:27:08.993Z,6.90
2019-04-07T04:28:14.315Z,6.90
2019-04-07T04:29:18.896Z,6.90
2019-04-07T04:30:23.583Z,6.90
2019-04-07T04:31:28.075Z,6.90
2019-04-07T04:32:32.896Z,6.90
2019-04-07T04:33:37.806Z,6.90
2019-04-07T04:34:45.000Z,6.90
2019-04-07T04:35:49.519Z,6.90
2019-04-07T04:36:54.498Z,6.80
2019-04-07T04:37:59.780Z,6.90
2019-04-07T04:39:08.127Z,6.90
2019-04-07T04:40:13.842Z,6.80
2019-04-07T04:41:18.978Z,6.80
2019-04-07T04:42:23.509Z,6.80
2019-04-07T04:43:27.914Z,6.80
2019-04-07T04:44:32.362Z,6.80
2019-04-07T04:45:36.833Z,6.80
2019-04-07T04:46:41.438Z,6.80
2019-04-07T04:47:46.437Z,6.80
2019-04-07T04:48:51.373Z,6.80
2019-04-07T04:49:56.264Z,6.80
2019-04-07T04:51:00.681Z,6.80
2019-04-07T04:52:05.342Z,6.80
2019-04-07T04:53:10.707Z,6.80
2019-04-07T04:54:15.369Z,6.80
2019-04-07T04:55:20.045Z,6.80
2019-04-07T04:56:24.565Z,6.80
2019-04-07T04:57:28.973Z,6.80
2019-04-07T04:58:33.388Z,6.80
2019-04-07T04:59:37.853Z,6.80
2019-04-07T05:00:42.860Z,6.80
2019-04-07T05:01:47.833Z,6.80
2019-04-07T05:02:52.525Z,6.80
2019-04-07T05:03:57.121Z,6.80
2019-04-07T05:05:02.587Z,6.80
2019-04-07T05:06:07.864Z,6.80
2019-04-07T05:07:12.767Z,6.80
2019-04-07T05:08:17.644Z,6.80
2019-04-07T05:09:22.122Z,6.80
2019-04-07T05:10:26.623Z,6.80
2019-04-07T05:11:31.574Z,6.80
2019-04-07T05:12:36.003Z,6.80
2019-04-07T05:13:41.140Z,6.80
2019-04-07T05:14:45.640Z,6.80
2019-04-07T05:15:50.237Z,6.80
2019-04-07T05:16:54.857Z,6.90
2019-04-07T05:17:59.210Z,6.90
2019-04-07T05:19:04.454Z,6.90
2019-04-07T05:20:09.210Z,6.90
2019-04-07T05:21:13.644Z,6.90
2019-04-07T05:22:17.993Z,7.00
2019-04-07T05:23:23.075Z,7.00
2019-04-07T05:24:27.565Z,7.00
2019-04-07T05:25:31.894Z,7.00
2019-04-07T05:26:36.548Z,7.00
2019-04-07T05:27:41.610Z,7.00
2019-04-07T05:28:46.159Z,7.10
2019-04-07T05:29:51.071Z,7.10
2019-04-07T05:30:55.510Z,7.10
2019-04-07T05:32:00.175Z,7.20
2019-04-07T05:33:05.535Z,7.20
2019-04-07T05:34:10.667Z,7.20
2019-04-07T05:35:15.400Z,7.20
2019-04-07T05:36:20.311Z,7.20
2019-04-07T05:37:25.329Z,7.30
2019-04-07T05:38:30.253Z,7.30
2019-04-07T05:39:34.804Z,7.30
2019-04-07T05:40:39.944Z,7.30
2019-04-07T05:41:45.029Z,7.40
2019-04-07T05:42:49.712Z,7.40
2019-04-07T05:43:54.232Z,7.40
2019-04-07T05:44:58.652Z,7.50
2019-04-07T05:46:05.875Z,7.50
2019-04-07T05:47:10.873Z,7.50
2019-04-07T05:48:18.518Z,7.50
2019-04-07T05:49:23.251Z,7.60
2019-04-07T05:50:28.758Z,7.60
2019-04-07T05:51:33.821Z,7.60
2019-04-07T05:52:39.860Z,7.70
2019-04-07T05:53:47.070Z,7.70
2019-04-07T05:54:51.531Z,7.70
2019-04-07T05:55:56.270Z,7.80
2019-04-07T05:57:01.569Z,7.80
2019-04-07T05:58:08.338Z,7.90
2019-04-07T05:59:13.913Z,7.90
2019-04-07T06:00:19.672Z,8.00
2019-04-07T06:01:24.614Z,8.00
2019-04-07T06:02:31.394Z,8.10
2019-04-07T06:03:38.727Z,8.10
2019-04-07T06:04:41.580Z,8.20
2019-04-07T06:05:50.017Z,8.20
2019-04-07T06:07:06.981Z,8.20
2019-04-07T06:08:18.715Z,8.30
2019-04-07T06:09:08.429Z,8.40
2019-04-07T06:10:13.332Z,8.40
2019-04-07T06:11:17.856Z,8.50
2019-04-07T06:12:22.672Z,8.50
2019-04-07T06:13:27.150Z,8.50
2019-04-07T06:14:31.588Z,8.60
2019-04-07T06:15:36.325Z,8.70
2019-04-07T06:16:40.703Z,8.70
2019-04-07T06:17:45.744Z,8.70
2019-04-07T06:18:50.318Z,8.80
2019-04-07T06:19:54.689Z,8.80
2019-04-07T06:20:59.462Z,8.90
2019-04-07T06:22:04.832Z,9.00
2019-04-07T06:23:10.021Z,9.00
2019-04-07T06:24:14.625Z,9.10
2019-04-07T06:25:19.096Z,9.10
2019-04-07T06:26:23.431Z,9.10
2019-04-07T06:27:29.638Z,9.20
2019-04-07T06:28:34.322Z,9.30
2019-04-07T06:29:38.966Z,9.30
2019-04-07T06:30:44.004Z,9.40
2019-04-07T06:31:49.400Z,9.40
2019-04-07T06:32:54.706Z,9.50
2019-04-07T06:33:59.876Z,9.50
2019-04-07T06:35:05.142Z,9.60
2019-04-07T06:36:09.565Z,9.60
2019-04-07T06:37:14.527Z,9.70
2019-04-07T06:38:29.598Z,9.70
2019-04-07T06:39:24.994Z,9.70
2019-04-07T06:40:29.410Z,9.80
2019-04-07T06:41:34.284Z,9.80
2019-04-07T06:42:38.799Z,9.90
2019-04-07T06:43:44.103Z,9.90
2019-04-07T06:44:51.074Z,10.00
2019-04-07T06:46:04.896Z,10.00
2019-04-07T06:47:15.959Z,10.10
2019-04-07T06:48:21.133Z,10.20
2019-04-07T06:49:47.071Z,10.20
2019-04-07T06:50:59.262Z,10.30
2019-04-07T06:52:25.998Z,10.30
2019-04-07T06:53:58.987Z,10.40
2019-04-07T06:55:33.301Z,10.50
2019-04-07T06:56:50.011Z,10.50
2019-04-07T06:58:12.680Z,10.60
2019-04-07T06:59:26.173Z,10.70
2019-04-07T07:00:49.153Z,10.70
2019-04-07T07:02:13.251Z,10.80
2019-04-07T07:03:36.061Z,10.80
2019-04-07T07:05:06.131Z,10.90
2019-04-07T07:06:26.842Z,10.90
2019-04-07T07:07:52.064Z,11.00
2019-04-07T07:09:07.492Z,11.10
2019-04-07T07:10:38.680Z,11.20
2019-04-07T07:11:58.799Z,11.20
2019-04-07T07:13:30.754Z,11.30
2019-04-07T07:15:03.383Z,11.30
2019-04-07T07:16:26.744Z,11.40
2019-04-07T07:17:39.158Z,11.50
2019-04-07T07:18:56.748Z,11.50
2019-04-07T07:20:08.223Z,11.60
2019-04-07T07:21:39.220Z,11.60
2019-04-07T07:22:46.571Z,11.70
2019-04-07T07:23:50.527Z,11.70
2019-04-07T07:24:58.027Z,11.80
2019-04-07T07:26:03.101Z,11.80
2019-04-07T07:27:10.101Z,11.80
2019-04-07T07:28:13.564Z,11.90
2019-04-07T07:29:19.012Z,12.00
2019-04-07T07:30:23.645Z,12.00
2019-04-07T07:31:28.312Z,12.10
2019-04-07T07:32:35.038Z,12.10
2019-04-07T07:33:41.452Z,12.20
2019-04-07T07:34:44.983Z,12.20
2019-04-07T07:35:49.493Z,12.30
2019-04-07T07:36:56.597Z,12.30
2019-04-07T07:38:00.265Z,12.40
2019-04-07T07:39:10.240Z,12.40
2019-04-07T07:40:16.595Z,12.40
2019-04-07T07:41:21.227Z,12.50
2019-04-07T07:42:25.700Z,12.50
2019-04-07T07:43:30.287Z,12.60
2019-04-07T07:44:38.165Z,12.60
2019-04-07T07:45:44.819Z,12.70
2019-04-07T07:46:49.114Z,12.70
2019-04-07T07:47:54.280Z,12.70
2019-04-07T07:49:01.757Z,12.80
2019-04-07T07:50:07.622Z,12.90
2019-04-07T07:51:13.841Z,12.90
2019-04-07T07:52:20.648Z,12.90
2019-04-07T07:53:27.210Z,13.00
2019-04-07T07:54:31.552Z,13.10
2019-04-07T07:55:37.642Z,13.10
2019-04-07T07:56:47.408Z,13.10
2019-04-07T07:57:49.107Z,13.20
2019-04-07T07:58:53.946Z,13.20
2019-04-07T07:59:58.603Z,13.20
2019-04-07T08:01:03.332Z,13.30
2019-04-07T08:02:08.608Z,13.30
2019-04-07T08:03:14.607Z,13.40
2019-04-07T08:04:19.170Z,13.40
2019-04-07T08:05:23.801Z,13.50
2019-04-07T08:06:28.415Z,13.50
2019-04-07T08:07:33.607Z,13.60
2019-04-07T08:08:38.204Z,13.60
2019-04-07T08:09:42.586Z,13.70
2019-04-07T08:10:47.386Z,13.70
2019-04-07T08:11:52.652Z,13.70
2019-04-07T08:12:57.476Z,13.80
2019-04-07T08:14:02.294Z,13.80
2019-04-07T08:15:07.224Z,13.80
2019-04-07T08:16:11.634Z,13.90
2019-04-07T08:17:16.214Z,14.00
2019-04-07T08:18:21.052Z,14.00
2019-04-07T08:19:29.358Z,14.00
2019-04-07T08:20:32.606Z,14.10
2019-04-07T08:21:37.160Z,14.10
2019-04-07T08:22:43.646Z,14.20
2019-04-07T08:23:48.193Z,14.20
2019-04-07T08:24:53.420Z,14.30
2019-04-07T08:25:59.061Z,14.40
2019-04-07T08:27:05.207Z,14.40
2019-04-07T08:28:09.688Z,14.50
2019-04-07T08:29:14.925Z,14.60
2019-04-07T08:30:20.107Z,14.60
2019-04-07T08:31:25.067Z,14.70
2019-04-07T08:32:31.944Z,14.70
2019-04-07T08:33:35.866Z,14.80
2019-04-07T08:34:40.413Z,14.80
2019-04-07T08:35:45.092Z,14.90
2019-04-07T08:36:49.529Z,14.90
2019-04-07T08:37:54.520Z,14.90
2019-04-07T08:38:59.560Z,15.00
2019-04-07T08:40:07.271Z,15.00
2019-04-07T08:41:12.765Z,15.00
2019-04-07T08:42:18.706Z,15.10
2019-04-07T08:43:23.834Z,15.10
2019-04-07T08:44:30.504Z,15.20
2019-04-07T08:45:36.016Z,15.20
2019-04-07T08:46:42.929Z,15.30
2019-04-07T08:47:48.873Z,15.30
2019-04-07T08:48:55.299Z,15.40
2019-04-07T08:49:59.842Z,15.40
2019-04-07T08:51:04.712Z,15.50
2019-04-07T08:52:11.491Z,15.50
2019-04-07T08:53:16.258Z,15.50
2019-04-07T08:54:21.504Z,15.50
2019-04-07T08:55:25.926Z,15.50
2019-04-07T08:56:31.001Z,15.50
2019-04-07T08:57:36.898Z,15.60
2019-04-07T08:58:41.496Z,15.60
2019-04-07T08:59:46.742Z,15.60
2019-04-07T09:00:53.830Z,15.70
2019-04-07T09:01:58.100Z,15.70
2019-04-07T09:03:07.767Z,15.80
2019-04-07T09:04:09.362Z,15.80
2019-04-07T09:05:14.105Z,15.90
2019-04-07T09:06:18.567Z,15.90
2019-04-07T09:07:24.406Z,15.90
2019-04-07T09:08:29.566Z,16.00
2019-04-07T09:09:37.142Z,16.10
2019-04-07T09:10:51.528Z,16.20
2019-04-07T09:11:57.288Z,16.20
2019-04-07T09:13:03.638Z,16.30
2019-04-07T09:14:08.768Z,16.30
2019-04-07T09:15:19.136Z,16.40
2019-04-07T09:16:31.860Z,16.40
2019-04-07T09:17:46.013Z,16.50
2019-04-07T09:19:12.428Z,16.50
2019-04-07T09:20:44.381Z,16.60
2019-04-07T09:21:54.854Z,16.70
2019-04-07T09:23:06.832Z,16.80
2019-04-07T09:24:37.078Z,16.90
2019-04-07T09:26:00.127Z,17.00
2019-04-07T09:27:18.234Z,17.10
2019-04-07T09:28:34.946Z,17.10
2019-04-07T09:29:48.813Z,17.20
2019-04-07T09:31:15.416Z,17.30
2019-04-07T09:32:34.815Z,17.30
2019-04-07T09:34:08.056Z,17.40
2019-04-07T09:35:30.947Z,17.50
2019-04-07T09:37:04.468Z,17.50
2019-04-07T09:38:30.417Z,17.60
2019-04-07T09:39:57.826Z,17.60
2019-04-07T09:41:02.824Z,17.70
2019-04-07T09:42:15.968Z,17.70
2019-04-07T09:43:34.852Z,17.80
2019-04-07T09:45:07.071Z,17.80
2019-04-07T09:46:15.162Z,17.90
2019-04-07T09:47:39.151Z,18.00
2019-04-07T09:49:03.349Z,18.00
2019-04-07T09:50:33.361Z,18.10
2019-04-07T09:51:44.012Z,18.20
2019-04-07T09:53:17.042Z,18.30
2019-04-07T09:54:34.838Z,18.30
2019-04-07T09:55:58.248Z,18.40
2019-04-07T09:57:23.559Z,18.50
2019-04-07T09:59:01.372Z,18.60
2019-04-07T10:01:06.879Z,18.60
2019-04-07T10:02:32.018Z,18.70
2019-04-07T10:04:07.122Z,18.80
2019-04-07T10:05:30.935Z,18.80
2019-04-07T10:06:59.369Z,18.90
2019-04-07T10:08:19.076Z,18.90
2019-04-07T10:09:42.022Z,19.00
2019-04-07T10:11:05.238Z,19.00
2019-04-07T10:12:18.503Z,19.10
2019-04-07T10:13:46.338Z,19.20
2019-04-07T10:15:15.445Z,19.20
2019-04-07T10:16:37.931Z,19.30
2019-04-07T10:18:06.312Z,19.40
2019-04-07T10:19:30.077Z,19.40
2019-04-07T10:21:05.809Z,19.40
2019-04-07T10:22:29.947Z,19.40
2019-04-07T10:23:45.636Z,19.50
2019-04-07T10:24:57.237Z,19.50
2019-04-07T10:26:26.943Z,19.50
2019-04-07T10:27:46.499Z,19.50
2019-04-07T10:28:56.646Z,19.60
2019-04-07T10:30:20.141Z,19.60
2019-04-07T10:31:30.528Z,19.70
2019-04-07T10:32:43.088Z,19.70
2019-04-07T10:34:06.127Z,19.70
2019-04-07T10:35:30.635Z,19.80
2019-04-07T10:36:43.858Z,19.80
2019-04-07T10:38:02.621Z,19.80
2019-04-07T10:39:16.370Z,19.80
2019-04-07T10:40:38.978Z,19.90
2019-04-07T10:42:01.550Z,19.90
2019-04-07T10:43:25.007Z,19.90
2019-04-07T10:44:37.743Z,20.00
2019-04-07T10:45:57.972Z,20.00
2019-04-07T10:47:30.983Z,20.00
2019-04-07T10:48:43.365Z,20.10
2019-04-07T10:50:20.007Z,20.10
2019-04-07T10:51:34.307Z,20.10
2019-04-07T10:53:17.003Z,20.10
2019-04-07T10:54:34.903Z,20.10
2019-04-07T10:55:45.257Z,20.20
2019-04-07T10:56:55.252Z,20.20
2019-04-07T10:58:21.964Z,20.20
2019-04-07T10:59:54.440Z,20.30
2019-04-07T11:01:17.886Z,20.40
2019-04-07T11:02:29.612Z,20.40
2019-04-07T11:03:53.949Z,20.50
2019-04-07T11:05:33.725Z,20.50
2019-04-07T11:07:00.069Z,20.50
2019-04-07T11:08:33.081Z,20.60
2019-04-07T11:10:03.761Z,20.60
2019-04-07T11:11:36.699Z,20.70
2019-04-07T11:12:58.182Z,20.80
2019-04-07T11:14:19.896Z,20.90
2019-04-07T11:15:35.203Z,21.00
2019-04-07T11:16:51.303Z,21.20
2019-04-07T11:18:33.737Z,21.30
2019-04-07T11:20:00.323Z,21.50
2019-04-07T11:21:16.697Z,21.70
2019-04-07T11:22:38.526Z,22.00
2019-04-07T11:24:03.890Z,22.30
2019-04-07T11:25:24.481Z,22.60
2019-04-07T11:26:47.526Z,23.10
2019-04-07T11:28:10.015Z,23.50
2019-04-07T11:29:33.688Z,24.00
2019-04-07T11:31:16.862Z,24.60
2019-04-07T11:32:28.875Z,25.20
2019-04-07T11:33:58.865Z,25.80
2019-04-07T11:35:17.436Z,26.20
2019-04-07T11:36:44.280Z,26.70
2019-04-07T11:38:08.206Z,27.10
2019-04-07T11:39:39.576Z,27.70
2019-04-07T11:41:02.564Z,28.10
2019-04-07T11:42:25.125Z,28.60
2019-04-07T11:43:35.931Z,29.10
2019-04-07T11:44:57.537Z,29.50
2019-04-07T11:46:24.387Z,29.90
2019-04-07T11:47:54.449Z,30.30
2019-04-07T11:49:18.299Z,30.80
2019-04-07T11:50:27.975Z,31.30
2019-04-07T11:51:46.732Z,31.70
2019-04-07T11:53:02.000Z,32.00
2019-04-07T11:54:16.449Z,32.30
2019-04-07T11:55:30.101Z,32.70
2019-04-07T11:56:56.538Z,33.10
2019-04-07T11:58:39.793Z,33.30
2019-04-07T12:00:01.210Z,33.80
2019-04-07T12:01:46.036Z,34.10
2019-04-07T12:03:11.657Z,34.40
2019-04-07T12:04:28.389Z,34.60
2019-04-07T12:06:01.354Z,34.70
2019-04-07T12:07:23.390Z,34.60
2019-04-07T12:08:51.565Z,34.20
2019-04-07T12:10:18.636Z,33.90
2019-04-07T12:11:57.216Z,33.70
2019-04-07T12:13:25.382Z,33.90
2019-04-07T12:14:54.741Z,34.40
2019-04-07T12:16:21.921Z,35.00
2019-04-07T12:17:46.387Z,35.30
2019-04-07T12:19:13.791Z,35.80
2019-04-07T12:20:42.169Z,36.30
2019-04-07T12:21:59.660Z,36.70
2019-04-07T12:23:10.932Z,37.10
2019-04-07T12:24:33.677Z,37.60
2019-04-07T12:25:48.228Z,38.00
2019-04-07T12:27:15.144Z,38.40
2019-04-07T12:28:38.690Z,38.70
2019-04-07T12:30:02.486Z,38.80
2019-04-07T12:31:20.769Z,39.00
2019-04-07T12:32:47.790Z,39.00
2019-04-07T12:34:15.393Z,39.10
2019-04-07T12:35:54.994Z,39.20
2019-04-07T12:37:07.923Z,39.30
2019-04-07T12:38:26.438Z,39.30
2019-04-07T12:39:51.017Z,39.20
2019-04-07T12:41:17.154Z,39.20
2019-04-07T12:42:23.274Z,39.30
2019-04-07T12:43:49.190Z,39.30
2019-04-07T12:45:11.244Z,39.30
2019-04-07T12:46:21.695Z,39.10
2019-04-07T12:48:00.275Z,39.00
2019-04-07T12:49:12.316Z,38.90
2019-04-07T12:50:30.600Z,38.80
2019-04-07T12:51:55.951Z,39.00
2019-04-07T12:53:32.160Z,39.20
2019-04-07T12:54:50.481Z,39.50
2019-04-07T12:56:31.712Z,39.70
2019-04-07T12:57:55.288Z,39.70
2019-04-07T12:59:07.988Z,39.70
2019-04-07T13:00:55.792Z,39.60
2019-04-07T13:02:07.864Z,39.40
2019-04-07T13:03:25.362Z,39.30
2019-04-07T13:04:35.408Z,39.20
2019-04-07T13:05:47.183Z,39.30
2019-04-07T13:07:15.266Z,39.20
2019-04-07T13:08:25.814Z,39.10
2019-04-07T13:09:38.048Z,38.90
2019-04-07T13:10:49.331Z,38.80
2019-04-07T13:12:09.085Z,38.70
2019-04-07T13:13:33.899Z,38.60
2019-04-07T13:14:47.646Z,38.60
2019-04-07T13:16:10.177Z,38.60
2019-04-07T13:17:36.750Z,38.60
2019-04-07T13:18:56.662Z,38.80
2019-04-07T13:20:13.329Z,39.00
2019-04-07T13:21:29.021Z,39.30
2019-04-07T13:22:50.806Z,39.50
2019-04-07T13:24:15.454Z,39.50
2019-04-07T13:25:25.432Z,39.70
2019-04-07T13:26:37.495Z,39.70
2019-04-07T13:27:55.428Z,39.70
2019-04-07T13:29:04.309Z,39.70
2019-04-07T13:30:24.511Z,39.60
2019-04-07T13:31:51.449Z,39.30
2019-04-07T13:33:20.482Z,39.50
2019-04-07T13:34:51.469Z,39.40
2019-04-07T13:36:13.911Z,39.40
2019-04-07T13:37:33.116Z,39.30
2019-04-07T13:38:43.158Z,39.60
2019-04-07T13:40:02.681Z,39.80
2019-04-07T13:41:36.699Z,40.00
2019-04-07T13:42:57.450Z,40.20
2019-04-07T13:44:07.616Z,40.40
2019-04-07T13:45:42.139Z,40.50
2019-04-07T13:47:06.335Z,40.40
2019-04-07T13:48:28.847Z,40.20
2019-04-07T13:49:51.418Z,40.20
2019-04-07T13:51:18.221Z,40.20
2019-04-07T13:52:34.408Z,40.10
2019-04-07T13:53:59.579Z,39.80
2019-04-07T13:55:10.761Z,39.70
2019-04-07T13:56:21.926Z,39.60
2019-04-07T13:57:49.324Z,39.60
2019-04-07T13:59:12.747Z,39.70
2019-04-07T14:00:28.306Z,40.00
2019-04-07T14:01:48.103Z,40.30
2019-04-07T14:03:01.412Z,40.50
2019-04-07T14:04:37.095Z,40.70
2019-04-07T14:06:02.361Z,40.70
2019-04-07T14:07:18.205Z,41.00
2019-04-07T14:08:32.146Z,41.20
2019-04-07T14:09:47.807Z,41.00
2019-04-07T14:11:10.131Z,40.90
2019-04-07T14:12:33.403Z,40.90
2019-04-07T14:14:09.658Z,41.00
2019-04-07T14:15:23.371Z,41.00
2019-04-07T14:16:46.421Z,40.80
2019-04-07T14:18:10.139Z,40.60
2019-04-07T14:19:21.858Z,40.70
2019-04-07T14:20:40.377Z,40.70
2019-04-07T14:21:58.870Z,40.80
2019-04-07T14:23:13.265Z,40.60
2019-04-07T14:24:23.892Z,40.50
2019-04-07T14:26:03.541Z,40.30
2019-04-07T14:27:17.612Z,40.30
2019-04-07T14:28:31.213Z,40.30
2019-04-07T14:29:42.738Z,40.60
2019-04-07T14:30:59.818Z,40.70
2019-04-07T14:32:23.059Z,40.90
2019-04-07T14:33:41.461Z,41.00
2019-04-07T14:34:55.450Z,41.30
2019-04-07T14:36:12.897Z,41.50
2019-04-07T14:37:24.006Z,41.60
2019-04-07T14:39:05.824Z,41.60
2019-04-07T14:40:18.351Z,41.50
2019-04-07T14:41:42.347Z,41.40
2019-04-07T14:43:09.348Z,41.30
2019-04-07T14:44:29.315Z,41.20
2019-04-07T14:45:47.540Z,40.90
2019-04-07T14:47:12.859Z,40.90
2019-04-07T14:48:33.738Z,40.90
2019-04-07T14:50:02.489Z,41.00
2019-04-07T14:51:21.865Z,41.00
2019-04-07T14:52:41.115Z,40.90
2019-04-07T14:54:04.736Z,40.60
2019-04-07T14:55:23.760Z,40.50
2019-04-07T14:56:42.145Z,40.60
2019-04-07T14:58:01.380Z,40.50
2019-04-07T14:59:13.769Z,40.50
2019-04-07T15:00:41.725Z,40.50
2019-04-07T15:01:53.690Z,40.50
2019-04-07T15:02:58.122Z,40.50
2019-04-07T15:04:02.572Z,40.50
2019-04-07T15:05:18.545Z,40.50
2019-04-07T15:06:25.915Z,40.60
2019-04-07T15:07:59.712Z,40.60
2019-04-07T15:09:16.641Z,40.60
2019-04-07T15:10:27.591Z,40.50
2019-04-07T15:11:45.634Z,40.30
2019-04-07T15:12:53.928Z,40.20
2019-04-07T15:14:00.696Z,40.20
2019-04-07T15:15:08.611Z,40.20
2019-04-07T15:16:11.339Z,40.30
2019-04-07T15:17:16.580Z,40.30
2019-04-07T15:18:21.579Z,40.30
2019-04-07T15:19:26.089Z,40.20
2019-04-07T15:20:31.162Z,40.10
2019-04-07T15:21:36.305Z,40.10
2019-04-07T15:22:41.069Z,40.00
2019-04-07T15:23:47.384Z,40.00
2019-04-07T15:24:52.553Z,40.00
2019-04-07T15:25:56.928Z,39.70
2019-04-07T15:27:01.537Z,39.60
2019-04-07T15:28:06.800Z,39.40
2019-04-07T15:29:11.381Z,39.40
2019-04-07T15:30:17.029Z,39.50
2019-04-07T15:31:21.704Z,39.40
2019-04-07T15:32:28.625Z,39.30
2019-04-07T15:33:33.970Z,39.30
2019-04-07T15:34:40.992Z,39.50
2019-04-07T15:35:48.686Z,39.50
2019-04-07T15:36:51.071Z,39.50
2019-04-07T15:37:55.693Z,39.70
2019-04-07T15:39:01.150Z,39.80
2019-04-07T15:40:07.246Z,39.70
2019-04-07T15:41:15.596Z,39.70
2019-04-07T15:42:33.058Z,39.60
2019-04-07T15:43:25.404Z,39.70
2019-04-07T15:44:29.898Z,39.70
2019-04-07T15:45:34.293Z,39.70
2019-04-07T15:46:38.686Z,39.70
2019-04-07T15:47:43.039Z,39.60
2019-04-07T15:48:48.375Z,39.50
2019-04-07T15:49:52.895Z,39.50
2019-04-07T15:51:00.803Z,39.60
2019-04-07T15:52:07.769Z,39.80
2019-04-07T15:53:09.322Z,40.00
2019-04-07T15:54:14.590Z,40.10
2019-04-07T15:55:19.260Z,40.10
2019-04-07T15:56:24.032Z,40.20
2019-04-07T15:57:29.042Z,40.20
2019-04-07T15:58:33.830Z,40.30
2019-04-07T15:59:38.322Z,40.40
2019-04-07T16:00:42.664Z,40.30
2019-04-07T16:01:47.266Z,40.10
2019-04-07T16:02:53.307Z,40.10
2019-04-07T16:03:57.768Z,39.80
2019-04-07T16:05:03.416Z,39.80
2019-04-07T16:06:09.542Z,39.60